Terminal Aerodrome Forecast
Issued by NWS

Home | Current Version | Previous Version | Text Only | Print | Product List | Glossary On
Versions: 1 2 3 4 5 6 7 8 9 10 11 12 13 14 15 16 17 18 19 20 21 22 23 24
000
FTUS46 KLOX 071143
TAFSBA
TAF
KSBA 071143Z 0712/0812 VRB03KT P6SM SKC
     FM071700 17007KT P6SM SKC
     FM072100 24010KT P6SM SKC WS010/33030KT
     FM080500 VRB03KT P6SM SKC WS010/01025KT
     FM080900 VRB03KT P6SM SKC=

USA.gov is the U.S. government's official web portal to all federal, state and local government web resources and services.